Time;durP1;ratioP1;P1;durP2;ratioP2;P2;SDS_P1;SDS_P2;PMS_P1;PMS_P2;Temp;Humidity;BMP_temperature;BMP_pressure;BME280_temperature;BME280_humidity;BME280_pressure;Samples;Min_cycle;Max_cycle;Signal;HPM_P1;HPM_P2
2023/02/23 00:00:44;0.00;0.00;0.62;0.00;0.00;0.62;2.07;1.63;;;24.30;26.80;;;;;;2259434;61;20361;-64
2023/02/23 00:03:29;0.00;0.00;0.62;0.00;0.00;0.62;1.60;1.17;;;24.30;26.80;;;;;;2260378;61;20388;-64
2023/02/23 00:06:15;0.00;0.00;0.62;0.00;0.00;0.62;2.40;1.60;;;24.20;26.70;;;;;;2259323;61;20960;-64
2023/02/23 00:09:00;0.00;0.00;0.62;0.00;0.00;0.62;2.00;1.30;;;24.20;26.70;;;;;;2259822;61;20389;-64
2023/02/23 00:11:44;0.00;0.00;0.62;0.00;0.00;0.62;1.93;1.30;;;24.30;26.80;;;;;;2259749;61;20385;-64
2023/02/23 00:14:29;0.00;0.00;0.62;0.00;0.00;0.62;2.43;1.50;;;24.20;26.70;;;;;;2260268;61;20357;-64
2023/02/23 00:17:16;0.00;0.00;0.62;0.00;0.00;0.62;2.50;1.50;;;24.30;26.80;;;;;;2260655;61;20360;-63
2023/02/23 00:20:06;0.00;0.00;0.62;0.00;0.00;0.62;2.13;1.43;;;24.20;26.70;;;;;;2259389;61;20385;-64
2023/02/23 00:22:53;0.00;0.00;0.62;0.00;0.00;0.62;2.00;1.40;;;24.20;26.70;;;;;;2259817;61;20421;-64
2023/02/23 00:25:37;0.00;0.00;0.62;0.00;0.00;0.62;2.37;1.40;;;24.20;26.70;;;;;;2260569;61;20439;-64
2023/02/23 00:28:23;0.00;0.00;0.62;0.00;0.00;0.62;2.27;1.23;;;24.30;26.80;;;;;;2259548;61;20365;-65
2023/02/23 00:31:10;0.00;0.00;0.62;0.00;0.00;0.62;3.10;1.30;;;24.20;26.70;;;;;;2259963;61;20368;-65
2023/02/23 00:33:59;0.00;0.00;0.62;0.00;0.00;0.62;2.00;1.37;;;24.20;26.70;;;;;;2259274;61;20389;-64
2023/02/23 00:36:44;0.00;0.00;0.62;0.00;0.00;0.62;2.03;1.47;;;24.20;26.70;;;;;;2260262;61;20361;-63
2023/02/23 00:39:31;0.00;0.00;0.62;0.00;0.00;0.62;2.07;1.40;;;24.20;26.70;;;;;;2256864;61;20507;-63
2023/02/23 00:42:15;0.00;0.00;0.62;0.00;0.00;0.62;1.73;1.30;;;24.20;26.70;;;;;;2256143;61;20872;-64
2023/02/23 00:45:06;0.00;0.00;0.62;0.00;0.00;0.62;2.80;1.30;;;24.30;26.80;;;;;;2256683;61;20396;-64
2023/02/23 00:47:51;0.00;0.00;0.62;0.00;0.00;0.62;2.00;1.70;;;24.20;26.70;;;;;;2257127;61;20357;-64
2023/02/23 00:50:37;0.00;0.00;0.62;0.00;0.00;0.62;2.20;1.40;;;24.20;26.70;;;;;;2256013;61;20468;-64
2023/02/23 00:53:22;0.00;0.00;0.62;0.00;0.00;0.62;2.10;1.30;;;24.30;26.80;;;;;;2256874;61;20917;-56
2023/02/23 00:56:10;0.00;0.00;0.62;0.00;0.00;0.62;2.27;1.60;;;24.20;26.70;;;;;;2259445;61;20397;-61
2023/02/23 00:58:55;0.00;0.00;0.62;0.00;0.00;0.62;1.90;1.30;;;24.20;26.70;;;;;;2260072;61;20462;-61
2023/02/23 01:01:44;0.00;0.00;0.62;0.00;0.00;0.62;1.77;1.20;;;24.30;26.80;;;;;;2260352;61;20412;-64
2023/02/23 01:04:29;0.00;0.00;0.62;0.00;0.00;0.62;1.83;1.20;;;24.20;26.70;;;;;;2259550;61;20636;-65
2023/02/23 01:07:15;0.00;0.00;0.62;0.00;0.00;0.62;2.57;1.60;;;24.20;26.70;;;;;;2256881;61;20364;-64
2023/02/23 01:10:00;0.00;0.00;0.62;0.00;0.00;0.62;2.10;1.20;;;24.20;26.80;;;;;;2259999;61;20369;-64
2023/02/23 01:12:49;0.00;0.00;0.62;0.00;0.00;0.62;1.87;1.30;;;24.20;26.70;;;;;;2265395;40;20409;-63
2023/02/23 01:15:34;0.00;0.00;0.62;0.00;0.00;0.62;2.07;1.30;;;24.20;26.70;;;;;;2256957;61;20492;-66
2023/02/23 01:18:20;0.00;0.00;0.62;0.00;0.00;0.62;2.30;1.50;;;24.30;26.80;;;;;;2259561;61;20924;-64
2023/02/23 01:21:13;0.00;0.00;0.62;0.00;0.00;0.62;2.13;1.50;;;24.30;27.30;;;;;;2259900;61;20540;-65
2023/02/23 01:24:01;0.00;0.00;0.62;0.00;0.00;0.62;3.37;2.30;;;24.30;26.70;;;;;;2260151;61;20377;-65
2023/02/23 01:26:46;0.00;0.00;0.62;0.00;0.00;0.62;3.43;2.73;;;24.30;26.70;;;;;;2259693;61;20451;-64
2023/02/23 01:29:31;0.00;0.00;0.62;0.00;0.00;0.62;3.70;2.60;;;24.20;26.60;;;;;;2259472;61;20353;-65
2023/02/23 01:32:15;0.00;0.00;0.62;0.00;0.00;0.62;3.33;2.70;;;24.20;26.60;;;;;;2257134;61;20393;-65
2023/02/23 01:35:00;0.00;0.00;0.62;0.00;0.00;0.62;3.63;3.00;;;24.20;26.60;;;;;;2259255;61;20363;-65
2023/02/23 01:37:44;0.00;0.00;0.62;0.00;0.00;0.62;5.20;3.37;;;24.20;26.50;;;;;;2259964;61;20468;-65
2023/02/23 01:40:35;0.00;0.00;0.62;0.00;0.00;0.62;3.90;3.23;;;24.20;26.50;;;;;;2259332;61;20928;-64
2023/02/23 01:43:24;0.00;0.00;0.62;0.00;0.00;0.62;4.43;3.50;;;24.20;26.40;;;;;;2256532;61;20381;-65
2023/02/23 01:46:09;0.00;0.00;0.62;0.00;0.00;0.62;3.93;3.23;;;24.20;26.40;;;;;;2260068;61;20397;-65
2023/02/23 01:48:55;0.00;0.00;0.62;0.00;0.00;0.62;4.67;3.40;;;24.20;26.40;;;;;;2259079;61;20395;-66
2023/02/23 01:51:47;0.00;0.00;0.62;0.00;0.00;0.62;4.37;3.40;;;24.20;26.40;;;;;;2260243;61;20380;-64
2023/02/23 01:54:35;0.00;0.00;0.62;0.00;0.00;0.62;5.00;3.77;;;24.20;26.40;;;;;;2260991;61;20357;-65
2023/02/23 01:57:25;0.00;0.00;0.62;0.00;0.00;0.62;4.27;3.63;;;24.20;26.40;;;;;;2259655;61;20380;-65
2023/02/23 02:00:13;0.00;0.00;0.62;0.00;0.00;0.62;4.40;3.50;;;24.10;26.30;;;;;;2260228;61;21005;-65
2023/02/23 02:03:07;0.00;0.00;0.62;0.00;0.00;0.62;4.80;3.83;;;24.10;26.30;;;;;;2352639;40;20619;-66
2023/02/23 02:05:53;0.00;0.00;0.62;0.00;0.00;0.62;4.97;3.97;;;24.10;26.30;;;;;;2262363;61;20376;-65
2023/02/23 02:08:46;0.00;0.00;0.62;0.00;0.00;0.62;5.20;4.10;;;24.10;26.30;;;;;;2264793;61;20353;-67
2023/02/23 02:11:35;0.00;0.00;0.62;0.00;0.00;0.62;5.47;3.70;;;24.10;26.30;;;;;;2261077;61;20368;-66
2023/02/23 02:14:26;0.00;0.00;0.62;0.00;0.00;0.62;4.30;3.80;;;24.00;26.30;;;;;;2260628;61;20404;-66
2023/02/23 02:17:28;0.00;0.00;0.62;0.00;0.00;0.62;4.60;4.10;;;24.00;26.30;;;;;;2260378;61;20402;-65
2023/02/23 02:21:05;0.00;0.00;0.62;0.00;0.00;0.62;5.33;4.83;;;24.00;26.30;;;;;;2260316;61;20439;-65
2023/02/23 02:24:15;0.00;0.00;0.62;0.00;0.00;0.62;5.20;4.03;;;24.00;26.30;;;;;;2260789;61;20388;-65
2023/02/23 02:27:18;0.00;0.00;0.62;0.00;0.00;0.62;4.77;4.03;;;23.90;26.30;;;;;;2259921;61;20454;-65
2023/02/23 02:30:38;0.00;0.00;0.62;0.00;0.00;0.62;5.07;4.40;;;23.90;26.30;;;;;;2260094;61;20793;-65
2023/02/23 02:34:14;0.00;0.00;0.62;0.00;0.00;0.62;5.73;5.13;;;23.90;26.30;;;;;;2259493;61;20380;-66
2023/02/23 02:37:36;0.00;0.00;0.62;0.00;0.00;0.62;7.77;6.60;;;23.90;26.30;;;;;;2247029;61;20811;-65
2023/02/23 02:40:29;0.00;0.00;0.62;0.00;0.00;0.62;8.63;7.70;;;23.80;26.20;;;;;;2246609;61;20498;-65
2023/02/23 02:43:28;0.00;0.00;0.62;0.00;0.00;0.62;8.87;8.00;;;23.70;26.20;;;;;;2246759;61;20411;-65
2023/02/23 02:46:17;0.00;0.00;0.62;0.00;0.00;0.62;9.13;7.27;;;23.70;26.10;;;;;;2245032;61;20403;-65
2023/02/23 02:49:07;0.00;0.00;0.62;0.00;0.00;0.62;8.73;7.93;;;23.70;26.70;;;;;;2259508;61;20357;-65
2023/02/23 02:51:58;0.00;0.00;0.62;0.00;0.00;0.62;9.20;7.30;;;23.60;26.10;;;;;;2257203;61;20889;-65
2023/02/23 02:54:52;0.00;0.00;0.62;0.00;0.00;0.62;8.43;6.97;;;23.60;26.10;;;;;;2259871;61;20449;-65
2023/02/23 02:57:42;0.00;0.00;0.62;0.00;0.00;0.62;6.83;6.13;;;23.50;26.10;;;;;;2257000;61;20715;-66
2023/02/23 04:18:50;0.00;0.00;0.62;0.00;0.00;0.62;8.00;7.20;;;23.20;26.40;;;;;;2259710;61;20381;-65
2023/02/23 04:21:35;0.00;0.00;0.62;0.00;0.00;0.62;7.83;7.03;;;23.20;26.40;;;;;;2254626;61;20372;-64
2023/02/23 04:24:21;0.00;0.00;0.62;0.00;0.00;0.62;8.90;6.83;;;23.20;26.40;;;;;;2259414;61;20361;-68
2023/02/23 04:27:06;0.00;0.00;0.62;0.00;0.00;0.62;7.10;6.50;;;23.20;26.40;;;;;;2259872;61;20772;-65
2023/02/23 04:29:52;0.00;0.00;0.62;0.00;0.00;0.62;8.77;7.17;;;23.20;26.40;;;;;;2259560;61;20815;-66
2023/02/23 04:32:37;0.00;0.00;0.62;0.00;0.00;0.62;8.70;7.27;;;23.20;26.40;;;;;;2259514;61;20381;-64
2023/02/23 04:35:22;0.00;0.00;0.62;0.00;0.00;0.62;8.53;7.37;;;23.20;26.90;;;;;;2260062;61;20361;-65
2023/02/23 04:38:07;0.00;0.00;0.62;0.00;0.00;0.62;9.13;6.17;;;23.20;26.40;;;;;;2259577;61;20464;-66
2023/02/23 04:40:52;0.00;0.00;0.62;0.00;0.00;0.62;7.53;6.77;;;23.20;26.40;;;;;;2259835;61;20365;-66
2023/02/23 04:43:36;0.00;0.00;0.62;0.00;0.00;0.62;7.93;7.13;;;23.10;26.40;;;;;;2260320;61;20393;-65
2023/02/23 04:46:22;0.00;0.00;0.62;0.00;0.00;0.62;6.73;6.13;;;23.10;26.40;;;;;;2259325;61;20380;-67
2023/02/23 04:49:08;0.00;0.00;0.62;0.00;0.00;0.62;8.67;7.77;;;23.10;26.40;;;;;;2256180;61;20393;-66
2023/02/23 04:51:52;0.00;0.00;0.62;0.00;0.00;0.62;7.27;6.57;;;23.20;26.50;;;;;;2260150;61;20408;-67
2023/02/23 04:54:38;0.00;0.00;0.62;0.00;0.00;0.62;7.40;6.70;;;23.10;26.50;;;;;;2256253;61;20353;-66
2023/02/23 04:57:22;0.00;0.00;0.62;0.00;0.00;0.62;6.00;5.40;;;23.10;26.50;;;;;;2260104;61;20364;-65
2023/02/23 05:00:09;0.00;0.00;0.62;0.00;0.00;0.62;7.97;6.60;;;23.10;26.50;;;;;;2259854;61;20800;-65
2023/02/23 05:02:56;0.00;0.00;0.62;0.00;0.00;0.62;7.27;6.50;;;23.10;26.50;;;;;;2259795;61;20533;-66
2023/02/23 05:05:41;0.00;0.00;0.62;0.00;0.00;0.62;7.07;6.10;;;23.10;26.50;;;;;;2257016;61;20415;-65
2023/02/23 05:08:26;0.00;0.00;0.62;0.00;0.00;0.62;7.40;6.70;;;23.10;26.50;;;;;;2259540;61;20388;-65
2023/02/23 05:11:11;0.00;0.00;0.62;0.00;0.00;0.62;7.57;6.77;;;23.10;26.50;;;;;;2259202;61;20504;-66
2023/02/23 05:13:56;0.00;0.00;0.62;0.00;0.00;0.62;7.20;6.50;;;23.10;26.50;;;;;;2260085;61;20780;-65
2023/02/23 05:16:41;0.00;0.00;0.62;0.00;0.00;0.62;7.93;7.17;;;23.10;26.50;;;;;;2259551;61;20454;-65
2023/02/23 05:19:27;0.00;0.00;0.62;0.00;0.00;0.62;7.60;6.90;;;23.10;26.50;;;;;;2259464;61;20376;-69
2023/02/23 05:22:12;0.00;0.00;0.62;0.00;0.00;0.62;8.87;7.00;;;23.00;26.40;;;;;;2256689;61;20385;-63
2023/02/23 05:24:57;0.00;0.00;0.62;0.00;0.00;0.62;7.13;6.43;;;23.00;27.00;;;;;;2259968;61;20360;-65
2023/02/23 05:27:41;0.00;0.00;0.62;0.00;0.00;0.62;8.00;7.20;;;23.00;26.50;;;;;;2260016;61;20360;-66
2023/02/23 05:30:26;0.00;0.00;0.62;0.00;0.00;0.62;8.53;7.73;;;23.00;26.50;;;;;;2258934;61;20357;-66
2023/02/23 05:36:04;0.00;0.00;0.62;0.00;0.00;0.62;8.90;8.07;;;23.00;26.50;;;;;;2266054;61;20414;-64
2023/02/23 05:38:49;0.00;0.00;0.62;0.00;0.00;0.62;8.53;7.50;;;23.00;26.50;;;;;;2263454;61;20396;-64
2023/02/23 05:41:34;0.00;0.00;0.62;0.00;0.00;0.62;8.00;7.30;;;23.00;26.50;;;;;;2260470;61;20466;-65
2023/02/23 05:44:19;0.00;0.00;0.62;0.00;0.00;0.62;9.10;8.20;;;23.00;26.60;;;;;;2256911;61;20361;-62
2023/02/23 05:47:03;0.00;0.00;0.62;0.00;0.00;0.62;8.33;7.50;;;23.00;26.60;;;;;;2259899;61;20415;-65
2023/02/23 05:49:48;0.00;0.00;0.62;0.00;0.00;0.62;9.90;8.40;;;23.00;26.60;;;;;;2259379;61;20438;-63
2023/02/23 05:52:37;0.00;0.00;0.62;0.00;0.00;0.62;9.00;8.03;;;22.90;26.60;;;;;;2259338;61;20389;-64
2023/02/23 05:55:23;0.00;0.00;0.62;0.00;0.00;0.62;12.97;8.53;;;22.90;26.60;;;;;;2256214;61;20369;-64
2023/02/23 05:58:13;0.00;0.00;0.62;0.00;0.00;0.62;8.50;7.70;;;23.00;26.70;;;;;;2260475;61;20401;-67
2023/02/23 06:00:58;0.00;0.00;0.62;0.00;0.00;0.62;9.07;8.10;;;22.90;26.60;;;;;;2259086;61;20909;-65
2023/02/23 06:03:43;0.00;0.00;0.62;0.00;0.00;0.62;8.60;7.70;;;22.90;26.70;;;;;;2280227;48;20404;-65
2023/02/23 06:06:28;0.00;0.00;0.62;0.00;0.00;0.62;11.83;8.33;;;22.90;26.70;;;;;;2260337;61;20361;-64
2023/02/23 06:09:14;0.00;0.00;0.62;0.00;0.00;0.62;7.53;6.80;;;22.90;26.70;;;;;;2259389;61;20361;-63
2023/02/23 06:12:01;0.00;0.00;0.62;0.00;0.00;0.62;8.80;7.90;;;22.90;26.80;;;;;;2259916;61;20361;-65
2023/02/23 06:14:46;0.00;0.00;0.62;0.00;0.00;0.62;10.13;9.13;;;22.90;26.80;;;;;;2259726;61;20411;-62
2023/02/23 06:17:33;0.00;0.00;0.62;0.00;0.00;0.62;9.43;8.17;;;22.90;26.80;;;;;;2259653;61;20360;-65
2023/02/23 06:20:19;0.00;0.00;0.62;0.00;0.00;0.62;10.07;9.00;;;22.90;26.80;;;;;;2256865;61;20917;-63
2023/02/23 06:23:04;0.00;0.00;0.62;0.00;0.00;0.62;9.30;8.33;;;22.90;26.80;;;;;;2256395;61;20384;-63
2023/02/23 06:25:50;0.00;0.00;0.62;0.00;0.00;0.62;9.80;8.80;;;22.90;26.80;;;;;;2256357;61;20471;-66
2023/02/23 06:28:35;0.00;0.00;0.62;0.00;0.00;0.62;11.00;9.53;;;22.90;26.80;;;;;;2257050;61;20387;-61
2023/02/23 06:31:20;0.00;0.00;0.62;0.00;0.00;0.62;9.63;8.63;;;22.90;26.80;;;;;;2255806;61;20411;-67
2023/02/23 06:34:09;0.00;0.00;0.62;0.00;0.00;0.62;9.17;8.27;;;22.90;26.80;;;;;;2259292;61;20357;-65
2023/02/23 06:36:54;0.00;0.00;0.62;0.00;0.00;0.62;10.20;8.57;;;22.90;26.80;;;;;;2259655;61;20916;-63
2023/02/23 06:39:42;0.00;0.00;0.62;0.00;0.00;0.62;9.47;8.50;;;22.90;26.80;;;;;;2259298;61;20543;-63
2023/02/23 06:42:31;0.00;0.00;0.62;0.00;0.00;0.62;11.93;9.00;;;22.90;26.80;;;;;;2260208;61;20530;-65
2023/02/23 06:45:18;0.00;0.00;0.62;0.00;0.00;0.62;10.27;8.77;;;22.90;26.80;;;;;;2260112;61;20369;-64
2023/02/23 06:48:04;0.00;0.00;0.62;0.00;0.00;0.62;10.30;8.70;;;22.90;26.80;;;;;;2260174;61;20384;-63
2023/02/23 06:50:49;0.00;0.00;0.62;0.00;0.00;0.62;10.50;9.50;;;22.90;26.80;;;;;;2256770;61;20357;-64
2023/02/23 06:53:33;0.00;0.00;0.62;0.00;0.00;0.62;11.13;9.03;;;22.90;26.80;;;;;;2260128;61;20834;-62
2023/02/23 06:56:18;0.00;0.00;0.62;0.00;0.00;0.62;11.47;9.70;;;22.90;26.80;;;;;;2260723;61;20767;-63
2023/02/23 06:59:05;0.00;0.00;0.62;0.00;0.00;0.62;15.00;11.33;;;22.90;26.80;;;;;;2259569;61;20884;-68
2023/02/23 07:01:50;0.00;0.00;0.62;0.00;0.00;0.62;18.67;12.83;;;22.90;26.80;;;;;;2260398;61;20415;-62
2023/02/23 07:04:36;0.00;0.00;0.62;0.00;0.00;0.62;11.40;9.87;;;22.90;26.80;;;;;;2260939;61;20423;-63
2023/02/23 07:07:25;0.00;0.00;0.62;0.00;0.00;0.62;12.67;11.37;;;22.90;26.80;;;;;;2254547;61;20392;-65
2023/02/23 07:10:11;0.00;0.00;0.62;0.00;0.00;0.62;13.67;11.17;;;22.90;26.80;;;;;;2260598;61;20847;-63
2023/02/23 07:12:56;0.00;0.00;0.62;0.00;0.00;0.62;12.53;10.67;;;22.90;26.90;;;;;;2260845;61;20866;-69
2023/02/23 07:15:42;0.00;0.00;0.62;0.00;0.00;0.62;13.70;12.10;;;22.80;26.80;;;;;;2257205;61;20411;-67
2023/02/23 07:18:27;0.00;0.00;0.62;0.00;0.00;0.62;18.70;14.70;;;22.90;27.00;;;;;;2260726;61;20406;-68
2023/02/23 07:21:12;0.00;0.00;0.62;0.00;0.00;0.62;12.93;11.63;;;22.80;26.90;;;;;;2259819;61;20373;-62
2023/02/23 07:23:57;0.00;0.00;0.62;0.00;0.00;0.62;12.07;10.87;;;22.80;26.90;;;;;;2260529;61;20383;-66
2023/02/23 07:26:46;0.00;0.00;0.62;0.00;0.00;0.62;10.90;9.80;;;22.90;27.00;;;;;;2257468;61;20420;-63
2023/02/23 07:29:31;0.00;0.00;0.62;0.00;0.00;0.62;13.40;10.53;;;22.80;26.90;;;;;;2259323;61;20878;-65
2023/02/23 07:32:17;0.00;0.00;0.62;0.00;0.00;0.62;10.77;9.67;;;22.80;26.90;;;;;;2260510;61;20435;-63
2023/02/23 07:35:02;0.00;0.00;0.62;0.00;0.00;0.62;9.80;8.90;;;22.90;27.00;;;;;;2260506;61;20369;-65
2023/02/23 07:37:47;0.00;0.00;0.62;0.00;0.00;0.62;12.33;8.93;;;22.90;27.00;;;;;;2256821;61;20936;-63
2023/02/23 07:40:35;0.00;0.00;0.62;0.00;0.00;0.62;9.90;8.50;;;22.80;26.90;;;;;;2256965;61;20416;-59
2023/02/23 07:43:21;0.00;0.00;0.62;0.00;0.00;0.62;12.20;9.33;;;22.80;26.90;;;;;;2256489;61;20385;-64
2023/02/23 07:46:07;0.00;0.00;0.62;0.00;0.00;0.62;9.40;8.40;;;22.80;26.90;;;;;;2260633;61;20369;-61
2023/02/23 07:48:53;0.00;0.00;0.62;0.00;0.00;0.62;10.43;7.00;;;22.90;27.00;;;;;;2260312;61;20353;-64
2023/02/23 07:51:39;0.00;0.00;0.62;0.00;0.00;0.62;10.20;8.33;;;22.90;27.00;;;;;;2259703;61;20369;-61
2023/02/23 07:54:24;0.00;0.00;0.62;0.00;0.00;0.62;10.40;9.27;;;22.90;27.00;;;;;;2260468;61;20444;-61
2023/02/23 07:57:10;0.00;0.00;0.62;0.00;0.00;0.62;9.37;7.83;;;22.90;27.00;;;;;;2260349;61;20357;-64
2023/02/23 07:59:55;0.00;0.00;0.62;0.00;0.00;0.62;9.43;8.30;;;22.90;27.00;;;;;;2259412;61;20958;-63
2023/02/23 08:02:40;0.00;0.00;0.62;0.00;0.00;0.62;9.93;8.87;;;22.90;27.00;;;;;;2260496;61;20420;-63
2023/02/23 08:05:27;0.00;0.00;0.62;0.00;0.00;0.62;8.53;7.77;;;22.90;27.00;;;;;;2259644;61;20453;-64
2023/02/23 08:08:12;0.00;0.00;0.62;0.00;0.00;0.62;19.07;8.83;;;22.90;26.90;;;;;;2260291;61;20391;-64
2023/02/23 08:11:00;0.00;0.00;0.62;0.00;0.00;0.62;9.53;8.57;;;22.90;26.90;;;;;;2256839;61;20432;-62
2023/02/23 08:13:45;0.00;0.00;0.62;0.00;0.00;0.62;13.73;8.73;;;22.90;26.90;;;;;;2259509;61;20377;-62
2023/02/23 08:16:32;0.00;0.00;0.62;0.00;0.00;0.62;9.87;8.40;;;22.90;26.90;;;;;;2260429;61;20850;-64
2023/02/23 08:19:17;0.00;0.00;0.62;0.00;0.00;0.62;8.80;7.90;;;22.90;26.90;;;;;;2259963;61;20393;-62
2023/02/23 08:22:04;0.00;0.00;0.62;0.00;0.00;0.62;9.57;8.50;;;22.90;26.90;;;;;;2259981;61;20389;-63
2023/02/23 08:24:48;0.00;0.00;0.62;0.00;0.00;0.62;8.40;7.37;;;22.90;26.90;;;;;;2260159;61;20373;-63
2023/02/23 08:27:34;0.00;0.00;0.62;0.00;0.00;0.62;10.10;8.47;;;23.00;27.00;;;;;;2256502;61;20392;-60
2023/02/23 08:30:20;0.00;0.00;0.62;0.00;0.00;0.62;9.70;8.20;;;22.90;26.90;;;;;;2259827;61;20353;-60
2023/02/23 08:33:06;0.00;0.00;0.62;0.00;0.00;0.62;9.50;8.60;;;23.00;26.90;;;;;;2257293;61;20439;-64
2023/02/23 08:35:52;0.00;0.00;0.62;0.00;0.00;0.62;8.73;7.83;;;23.00;26.90;;;;;;2259638;61;20767;-63
2023/02/23 08:38:38;0.00;0.00;0.62;0.00;0.00;0.62;9.23;8.33;;;23.00;26.90;;;;;;2260472;61;20845;-59
2023/02/23 08:41:24;0.00;0.00;0.62;0.00;0.00;0.62;8.70;7.80;;;23.00;26.90;;;;;;2260466;61;20402;-64
2023/02/23 08:44:09;0.00;0.00;0.62;0.00;0.00;0.62;8.13;7.30;;;23.00;26.90;;;;;;2259450;61;20364;-62
2023/02/23 08:46:54;0.00;0.00;0.62;0.00;0.00;0.62;8.50;7.70;;;23.00;26.90;;;;;;2260377;61;20377;-60
2023/02/23 08:49:39;0.00;0.00;0.62;0.00;0.00;0.62;8.40;7.50;;;23.00;26.90;;;;;;2256602;61;20364;-65
2023/02/23 08:52:24;0.00;0.00;0.62;0.00;0.00;0.62;9.53;7.73;;;23.00;26.90;;;;;;2260140;61;20439;-64
2023/02/23 08:55:10;0.00;0.00;0.62;0.00;0.00;0.62;8.57;7.67;;;23.00;27.40;;;;;;2260357;61;20403;-60
2023/02/23 08:57:55;0.00;0.00;0.62;0.00;0.00;0.62;8.13;7.33;;;23.00;26.90;;;;;;2259306;61;20350;-63
2023/02/23 09:00:40;0.00;0.00;0.62;0.00;0.00;0.62;9.37;8.30;;;23.00;26.90;;;;;;2259837;61;20443;-61
2023/02/23 09:03:27;0.00;0.00;0.62;0.00;0.00;0.62;9.90;8.20;;;23.00;26.90;;;;;;2256909;61;20435;-62
2023/02/23 09:06:16;0.00;0.00;0.62;0.00;0.00;0.62;8.37;7.57;;;23.00;26.80;;;;;;2259611;61;20361;-63
2023/02/23 09:09:01;0.00;0.00;0.62;0.00;0.00;0.62;8.80;7.90;;;23.00;26.90;;;;;;2259807;61;20400;-64
2023/02/23 09:11:47;0.00;0.00;0.62;0.00;0.00;0.62;9.20;8.20;;;23.00;26.80;;;;;;2256923;61;20373;-62
2023/02/23 09:14:32;0.00;0.00;0.62;0.00;0.00;0.62;9.47;7.70;;;23.00;26.80;;;;;;2259589;61;20492;-63
2023/02/23 09:17:17;0.00;0.00;0.62;0.00;0.00;0.62;9.47;8.57;;;23.00;26.80;;;;;;2257327;61;20388;-60
2023/02/23 09:20:04;0.00;0.00;0.62;0.00;0.00;0.62;9.53;8.57;;;23.00;26.80;;;;;;2258908;61;20385;-62
2023/02/23 09:22:49;0.00;0.00;0.62;0.00;0.00;0.62;9.47;8.47;;;23.00;26.80;;;;;;2260613;61;20792;-59
2023/02/23 09:25:37;0.00;0.00;0.62;0.00;0.00;0.62;9.00;8.07;;;23.00;26.80;;;;;;2260204;61;20368;-61
2023/02/23 09:28:24;0.00;0.00;0.62;0.00;0.00;0.62;8.53;7.70;;;23.00;26.80;;;;;;2259481;61;20361;-63
2023/02/23 09:31:15;0.00;0.00;0.62;0.00;0.00;0.62;8.63;7.77;;;23.10;26.90;;;;;;2259826;61;20369;-60
2023/02/23 09:34:00;0.00;0.00;0.62;0.00;0.00;0.62;9.57;8.57;;;23.00;27.30;;;;;;2259950;61;20760;-64
2023/02/23 09:36:45;0.00;0.00;0.62;0.00;0.00;0.62;8.87;7.97;;;23.00;26.80;;;;;;2260317;61;20699;-61
2023/02/23 09:39:30;0.00;0.00;0.62;0.00;0.00;0.62;9.53;8.57;;;23.00;26.80;;;;;;2259435;61;20384;-61
2023/02/23 09:42:33;0.00;0.00;0.62;0.00;0.00;0.62;8.90;8.10;;;23.10;26.80;;;;;;2259278;61;20561;-62
2023/02/23 09:45:30;0.00;0.00;0.62;0.00;0.00;0.62;8.27;7.40;;;23.10;26.80;;;;;;2260554;61;20909;-60
2023/02/23 09:48:19;0.00;0.00;0.62;0.00;0.00;0.62;9.17;8.20;;;23.10;26.80;;;;;;2256845;61;20365;-63
2023/02/23 09:51:07;0.00;0.00;0.62;0.00;0.00;0.62;8.67;7.70;;;23.10;26.80;;;;;;2259345;61;20431;-60
2023/02/23 09:53:55;0.00;0.00;0.62;0.00;0.00;0.62;9.70;8.70;;;23.10;26.90;;;;;;2260092;61;20415;-62
2023/02/23 09:56:44;0.00;0.00;0.62;0.00;0.00;0.62;8.67;7.87;;;23.10;26.80;;;;;;2259382;61;20835;-59
2023/02/23 09:59:29;0.00;0.00;0.62;0.00;0.00;0.62;9.10;8.20;;;23.00;26.80;;;;;;2259487;61;20512;-60
2023/02/23 10:02:25;0.00;0.00;0.62;0.00;0.00;0.62;10.53;8.90;;;23.00;26.80;;;;;;2260302;61;20389;-59
2023/02/23 10:05:13;0.00;0.00;0.62;0.00;0.00;0.62;10.27;9.30;;;23.10;26.80;;;;;;2259488;61;20499;-62
2023/02/23 10:08:06;0.00;0.00;0.62;0.00;0.00;0.62;10.47;9.37;;;23.10;26.80;;;;;;2260445;61;20457;-64
2023/02/23 10:11:01;0.00;0.00;0.62;0.00;0.00;0.62;11.57;9.77;;;23.00;26.80;;;;;;2260055;61;20353;-64
2023/02/23 10:13:57;0.00;0.00;0.62;0.00;0.00;0.62;13.13;10.53;;;23.00;26.80;;;;;;2257453;61;20420;-64
2023/02/23 10:16:57;0.00;0.00;0.62;0.00;0.00;0.62;11.37;10.20;;;23.10;26.80;;;;;;2257611;61;20361;-64
2023/02/23 10:19:53;0.00;0.00;0.62;0.00;0.00;0.62;11.53;10.43;;;23.00;26.80;;;;;;2259580;61;20404;-67
2023/02/23 10:22:40;0.00;0.00;0.62;0.00;0.00;0.62;11.80;10.03;;;23.00;26.70;;;;;;2260771;61;20431;-64
2023/02/23 10:25:29;0.00;0.00;0.62;0.00;0.00;0.62;12.10;10.80;;;23.00;26.70;;;;;;2260922;61;20368;-64
2023/02/23 10:28:17;0.00;0.00;0.62;0.00;0.00;0.62;11.17;10.07;;;23.00;26.70;;;;;;2260324;61;20788;-64
2023/02/23 10:31:23;0.00;0.00;0.62;0.00;0.00;0.62;11.43;10.30;;;23.10;26.80;;;;;;2260608;61;20363;-64
2023/02/23 10:34:14;0.00;0.00;0.62;0.00;0.00;0.62;12.07;10.80;;;23.00;26.90;;;;;;2259807;61;20376;-64
2023/02/23 10:37:05;0.00;0.00;0.62;0.00;0.00;0.62;12.87;11.47;;;23.00;26.70;;;;;;2260992;61;20364;-65
2023/02/23 10:39:51;0.00;0.00;0.62;0.00;0.00;0.62;13.57;11.70;;;23.00;26.70;;;;;;2257309;61;20412;-64
2023/02/23 10:42:36;0.00;0.00;0.62;0.00;0.00;0.62;11.60;10.33;;;23.10;26.80;;;;;;2259756;61;20408;-65
2023/02/23 10:45:23;0.00;0.00;0.62;0.00;0.00;0.62;12.73;11.47;;;23.10;26.80;;;;;;2260818;61;20400;-64
2023/02/23 10:48:15;0.00;0.00;0.62;0.00;0.00;0.62;11.57;10.10;;;23.00;26.70;;;;;;2256803;61;20369;-64
2023/02/23 10:51:06;0.00;0.00;0.62;0.00;0.00;0.62;12.37;11.10;;;23.10;26.80;;;;;;2260356;61;20357;-64
2023/02/23 10:53:53;0.00;0.00;0.62;0.00;0.00;0.62;11.30;10.20;;;23.10;26.80;;;;;;2260768;61;20435;-65
2023/02/23 10:56:43;0.00;0.00;0.62;0.00;0.00;0.62;11.17;9.93;;;23.10;26.80;;;;;;2259863;61;20427;-68
2023/02/23 10:59:28;0.00;0.00;0.62;0.00;0.00;0.62;12.20;11.00;;;23.00;26.70;;;;;;2257335;61;21189;-64
2023/02/23 11:02:24;0.00;0.00;0.62;0.00;0.00;0.62;12.13;10.83;;;23.00;26.70;;;;;;2260537;61;20380;-64
2023/02/23 11:05:33;0.00;0.00;0.62;0.00;0.00;0.62;12.03;10.37;;;23.10;26.80;;;;;;2260059;61;20449;-64
2023/02/23 11:08:21;0.00;0.00;0.62;0.00;0.00;0.62;11.97;10.77;;;23.10;26.80;;;;;;2257704;61;20361;-65
2023/02/23 11:11:27;0.00;0.00;0.62;0.00;0.00;0.62;12.67;11.37;;;23.10;26.80;;;;;;2259465;61;20396;-62
2023/02/23 11:14:16;0.00;0.00;0.62;0.00;0.00;0.62;12.30;9.83;;;23.10;26.80;;;;;;2260682;61;20381;-61
2023/02/23 11:17:01;0.00;0.00;0.62;0.00;0.00;0.62;12.10;10.43;;;23.10;26.80;;;;;;2257638;61;20416;-63
2023/02/23 11:19:45;0.00;0.00;0.62;0.00;0.00;0.62;12.23;11.03;;;23.10;26.80;;;;;;2253774;61;20392;-62
2023/02/23 11:22:34;0.00;0.00;0.62;0.00;0.00;0.62;11.30;9.80;;;23.10;26.80;;;;;;2260638;61;20404;-64
2023/02/23 11:25:26;0.00;0.00;0.62;0.00;0.00;0.62;11.37;10.17;;;23.10;26.80;;;;;;2256605;61;20443;-65
2023/02/23 11:28:21;0.00;0.00;0.62;0.00;0.00;0.62;10.30;9.30;;;23.10;26.80;;;;;;2260733;61;20377;-63
2023/02/23 11:31:14;0.00;0.00;0.62;0.00;0.00;0.62;11.43;9.93;;;23.00;26.70;;;;;;2257033;61;20902;-63
2023/02/23 11:34:05;0.00;0.00;0.62;0.00;0.00;0.62;11.83;10.63;;;23.10;26.80;;;;;;2256575;61;20420;-65
2023/02/23 11:37:03;0.00;0.00;0.62;0.00;0.00;0.62;11.07;9.63;;;23.10;26.80;;;;;;2257430;61;20356;-65
2023/02/23 11:39:53;0.00;0.00;0.62;0.00;0.00;0.62;10.87;9.77;;;23.10;26.80;;;;;;2260162;61;20377;-64
2023/02/23 11:42:52;0.00;0.00;0.62;0.00;0.00;0.62;12.20;11.00;;;23.10;26.80;;;;;;2257576;61;20381;-64
2023/02/23 11:45:46;0.00;0.00;0.62;0.00;0.00;0.62;11.97;9.43;;;23.10;26.80;;;;;;2260446;61;20365;-64
2023/02/23 11:48:33;0.00;0.00;0.62;0.00;0.00;0.62;10.97;9.77;;;23.10;26.80;;;;;;2259668;61;20977;-65
2023/02/23 11:51:28;0.00;0.00;0.62;0.00;0.00;0.62;11.67;10.03;;;23.10;26.70;;;;;;2257072;61;20353;-65
2023/02/23 11:54:22;0.00;0.00;0.62;0.00;0.00;0.62;10.83;9.70;;;23.10;26.80;;;;;;2257251;61;20403;-65
2023/02/23 11:57:07;0.00;0.00;0.62;0.00;0.00;0.62;10.40;9.33;;;23.10;26.70;;;;;;2260469;61;20419;-68
2023/02/23 11:59:52;0.00;0.00;0.62;0.00;0.00;0.62;11.17;10.07;;;23.10;26.70;;;;;;2259987;61;20385;-65
2023/02/23 12:02:49;0.00;0.00;0.62;0.00;0.00;0.62;10.40;9.30;;;23.10;26.70;;;;;;2260041;61;20400;-65
2023/02/23 12:05:34;0.00;0.00;0.62;0.00;0.00;0.62;10.93;9.80;;;23.10;26.70;;;;;;2257205;61;20401;-65
2023/02/23 12:08:06;0.00;0.00;0.62;0.00;0.00;0.62;10.97;9.43;;;23.10;26.70;;;;;;2258775;61;20401;-65
2023/02/23 12:10:40;0.00;0.00;0.62;0.00;0.00;0.62;11.97;9.00;;;23.10;26.70;;;;;;2255260;61;20364;-65
2023/02/23 12:13:24;0.00;0.00;0.62;0.00;0.00;0.62;11.63;9.93;;;23.10;26.70;;;;;;2255727;61;20397;-65
2023/02/23 12:15:55;0.00;0.00;0.62;0.00;0.00;0.62;10.70;8.93;;;23.10;26.70;;;;;;2246096;61;20453;-65
2023/02/23 12:18:41;0.00;0.00;0.62;0.00;0.00;0.62;9.53;8.53;;;23.10;26.70;;;;;;2257634;61;20370;-65
2023/02/23 12:21:24;0.00;0.00;0.62;0.00;0.00;0.62;10.17;8.90;;;23.10;26.70;;;;;;2260031;61;20381;-65